Providence, Rhode Island
Traffic Map
Current Weather Conditions
Providence, Rhode Island
Clear
Clear
65°
Feels Like: 65°
Wind Chill: 65° Ceiling: Unl
Heat Index: 65° Visibility: 10mi
Dew Point: 60° Wind: 3mph
Humidity: 84% Direction: 270° (W)
Pressure: 29.99in Gusts: 0mph
Raw Report DataKPVD 260651Z AUTO 27003KT 10SM CLR 18/16 A2999 RMK AO2 SLP154 T01830156
Traffic Incident Summary
Active as of:
Severity:
Category:
InformationThere was an issue retrieving the traffic information for this location. Please try a different location or try again shortly.
Advertisements
Track Severe Weather on mobile